createdAt,value
2018-11-07T15:27:12.489Z,960.5
2018-11-07T15:29:51.217Z,960.5
2018-11-07T15:39:54.724Z,960.7
2018-11-07T15:49:58.240Z,960.8
2018-11-07T16:00:02.446Z,961
2018-11-07T16:10:06.547Z,961.1
2018-11-07T16:20:10.128Z,961.2
2018-11-07T16:30:13.594Z,961.7
2018-11-07T16:40:17.128Z,962
2018-11-07T16:50:20.667Z,962.1
2018-11-07T17:00:24.208Z,962.1
2018-11-07T17:10:27.718Z,962.3
2018-11-07T17:20:31.459Z,962.6
2018-11-07T17:30:34.966Z,962.8
2018-11-07T17:40:38.473Z,963.2
2018-11-07T17:50:41.993Z,963.5
2018-11-07T18:00:45.526Z,956.5
2018-11-07T18:10:49.030Z,956.9
2018-11-07T18:20:52.562Z,957
2018-11-07T18:30:56.080Z,956.9
2018-11-07T18:40:59.731Z,957.1
2018-11-07T18:51:03.254Z,957.1
2018-11-07T19:01:06.888Z,957.2
2018-11-07T19:11:10.403Z,957.3
2018-11-07T19:21:13.942Z,957.5
2018-11-07T19:31:17.452Z,957.7
2018-11-07T19:41:21.011Z,957.8
2018-11-07T19:51:24.536Z,957.8
2018-11-07T20:01:28.074Z,958
2018-11-07T20:11:31.603Z,958
2018-11-07T20:21:35.160Z,958.2
2018-11-07T20:31:38.685Z,958.3
2018-11-07T20:41:42.672Z,958.4
2018-11-07T20:51:46.217Z,958.5
2018-11-07T21:01:50.045Z,958.6
2018-11-07T21:11:53.629Z,958.7
2018-11-07T21:21:57.148Z,958.8
2018-11-07T21:32:00.685Z,958.7
2018-11-07T21:42:04.206Z,958.9
2018-11-07T21:52:07.743Z,959
2018-11-07T22:02:11.117Z,959.2
2018-11-07T22:12:15.464Z,959.2
2018-11-07T22:22:18.813Z,959.4
2018-11-07T22:32:22.346Z,959.7
2018-11-07T22:42:25.862Z,960
2018-11-07T22:52:29.403Z,960.4
2018-11-07T23:02:32.931Z,960.4
2018-11-07T23:12:36.503Z,960.6
2018-11-07T23:22:40.030Z,961
2018-11-07T23:32:43.565Z,961.2
2018-11-07T23:42:47.047Z,961.6
2018-11-07T23:52:50.584Z,961.9
